sensor_id;sensor_type;location;lat;lon;timestamp;P1;durP1;ratioP1;P2;durP2;ratioP2
62435;SDS011;48480;50.252;18.848;2022-11-20T00:01:22;104.00;;;47.20;;
62435;SDS011;48480;50.252;18.848;2022-11-20T00:03:51;79.20;;;39.50;;
62435;SDS011;48480;50.252;18.848;2022-11-20T00:06:18;83.70;;;40.10;;
62435;SDS011;48480;50.252;18.848;2022-11-20T00:08:45;96.40;;;43.50;;
62435;SDS011;48480;50.252;18.848;2022-11-20T00:11:20;83.90;;;38.90;;
62435;SDS011;48480;50.252;18.848;2022-11-20T00:13:50;75.70;;;36.40;;
62435;SDS011;48480;50.252;18.848;2022-11-20T00:16:18;75.00;;;36.80;;
62435;SDS011;48480;50.252;18.848;2022-11-20T00:18:45;52.10;;;25.50;;
62435;SDS011;48480;50.252;18.848;2022-11-20T00:21:12;61.80;;;31.30;;
62435;SDS011;48480;50.252;18.848;2022-11-20T00:23:49;62.00;;;32.70;;
62435;SDS011;48480;50.252;18.848;2022-11-20T00:26:17;57.50;;;27.40;;
62435;SDS011;48480;50.252;18.848;2022-11-20T00:28:48;77.20;;;37.70;;
62435;SDS011;48480;50.252;18.848;2022-11-20T00:31:34;67.40;;;35.70;;
62435;SDS011;48480;50.252;18.848;2022-11-20T00:34:00;60.10;;;30.20;;
62435;SDS011;48480;50.252;18.848;2022-11-20T00:36:26;56.70;;;29.80;;
62435;SDS011;48480;50.252;18.848;2022-11-20T00:38:54;71.40;;;39.10;;
62435;SDS011;48480;50.252;18.848;2022-11-20T00:45:48;69.20;;;35.30;;
62435;SDS011;48480;50.252;18.848;2022-11-20T00:48:14;70.30;;;35.50;;
62435;SDS011;48480;50.252;18.848;2022-11-20T00:50:40;57.80;;;30.80;;
62435;SDS011;48480;50.252;18.848;2022-11-20T00:53:06;75.70;;;38.90;;
62435;SDS011;48480;50.252;18.848;2022-11-20T00:55:31;62.00;;;32.20;;
62435;SDS011;48480;50.252;18.848;2022-11-20T00:57:56;56.90;;;28.40;;
62435;SDS011;48480;50.252;18.848;2022-11-20T01:00:22;61.30;;;30.20;;
62435;SDS011;48480;50.252;18.848;2022-11-20T01:02:47;64.20;;;33.80;;
62435;SDS011;48480;50.252;18.848;2022-11-20T01:05:13;70.70;;;36.00;;
62435;SDS011;48480;50.252;18.848;2022-11-20T01:07:38;72.50;;;36.90;;
62435;SDS011;48480;50.252;18.848;2022-11-20T01:10:03;46.40;;;25.00;;
62435;SDS011;48480;50.252;18.848;2022-11-20T01:12:29;74.40;;;36.20;;
62435;SDS011;48480;50.252;18.848;2022-11-20T01:14:54;66.30;;;35.10;;
62435;SDS011;48480;50.252;18.848;2022-11-20T01:17:20;82.20;;;42.30;;
62435;SDS011;48480;50.252;18.848;2022-11-20T01:19:48;66.80;;;35.30;;
62435;SDS011;48480;50.252;18.848;2022-11-20T01:22:15;58.90;;;31.30;;
62435;SDS011;48480;50.252;18.848;2022-11-20T01:24:40;67.70;;;34.40;;
62435;SDS011;48480;50.252;18.848;2022-11-20T01:27:06;61.00;;;30.50;;
62435;SDS011;48480;50.252;18.848;2022-11-20T01:29:31;71.20;;;34.40;;
62435;SDS011;48480;50.252;18.848;2022-11-20T01:31:56;61.80;;;34.10;;
62435;SDS011;48480;50.252;18.848;2022-11-20T01:34:22;67.90;;;34.80;;
62435;SDS011;48480;50.252;18.848;2022-11-20T01:36:48;52.20;;;26.30;;
62435;SDS011;48480;50.252;18.848;2022-11-20T01:39:17;61.80;;;31.50;;
62435;SDS011;48480;50.252;18.848;2022-11-20T01:41:44;46.80;;;25.10;;
62435;SDS011;48480;50.252;18.848;2022-11-20T01:44:43;56.60;;;31.60;;
62435;SDS011;48480;50.252;18.848;2022-11-20T01:47:14;61.00;;;32.10;;
62435;SDS011;48480;50.252;18.848;2022-11-20T01:49:46;43.60;;;22.80;;
62435;SDS011;48480;50.252;18.848;2022-11-20T01:55:19;57.30;;;31.10;;
62435;SDS011;48480;50.252;18.848;2022-11-20T01:57:47;71.50;;;33.80;;
62435;SDS011;48480;50.252;18.848;2022-11-20T02:00:14;65.30;;;33.50;;
62435;SDS011;48480;50.252;18.848;2022-11-20T02:03:01;62.80;;;31.20;;
62435;SDS011;48480;50.252;18.848;2022-11-20T02:05:46;61.50;;;29.60;;
62435;SDS011;48480;50.252;18.848;2022-11-20T02:08:14;72.60;;;35.70;;
62435;SDS011;48480;50.252;18.848;2022-11-20T02:10:40;65.90;;;32.50;;
62435;SDS011;48480;50.252;18.848;2022-11-20T02:13:05;55.90;;;28.90;;
62435;SDS011;48480;50.252;18.848;2022-11-20T02:15:51;72.40;;;34.20;;
62435;SDS011;48480;50.252;18.848;2022-11-20T02:18:18;64.60;;;34.30;;
62435;SDS011;48480;50.252;18.848;2022-11-20T02:20:45;85.70;;;38.20;;
62435;SDS011;48480;50.252;18.848;2022-11-20T02:25:47;88.50;;;43.00;;
62435;SDS011;48480;50.252;18.848;2022-11-20T02:28:14;70.90;;;36.20;;
62435;SDS011;48480;50.252;18.848;2022-11-20T02:30:40;77.70;;;38.90;;
62435;SDS011;48480;50.252;18.848;2022-11-20T02:33:05;71.60;;;35.60;;
62435;SDS011;48480;50.252;18.848;2022-11-20T02:37:57;64.30;;;31.20;;
62435;SDS011;48480;50.252;18.848;2022-11-20T02:40:26;87.30;;;38.90;;
62435;SDS011;48480;50.252;18.848;2022-11-20T02:42:52;73.90;;;36.70;;
62435;SDS011;48480;50.252;18.848;2022-11-20T02:45:18;70.90;;;36.10;;
62435;SDS011;48480;50.252;18.848;2022-11-20T02:47:43;62.40;;;31.90;;
62435;SDS011;48480;50.252;18.848;2022-11-20T02:50:09;68.10;;;35.40;;
62435;SDS011;48480;50.252;18.848;2022-11-20T02:52:34;70.90;;;35.10;;
62435;SDS011;48480;50.252;18.848;2022-11-20T02:55:00;68.40;;;35.10;;
62435;SDS011;48480;50.252;18.848;2022-11-20T02:57:25;71.60;;;35.10;;
62435;SDS011;48480;50.252;18.848;2022-11-20T02:59:51;60.00;;;28.10;;
62435;SDS011;48480;50.252;18.848;2022-11-20T03:02:16;64.70;;;33.80;;
62435;SDS011;48480;50.252;18.848;2022-11-20T03:04:41;61.60;;;31.80;;
62435;SDS011;48480;50.252;18.848;2022-11-20T03:07:07;69.00;;;34.30;;
62435;SDS011;48480;50.252;18.848;2022-11-20T03:09:34;62.40;;;34.70;;
62435;SDS011;48480;50.252;18.848;2022-11-20T03:12:00;60.40;;;31.50;;
62435;SDS011;48480;50.252;18.848;2022-11-20T03:14:25;60.20;;;30.50;;
62435;SDS011;48480;50.252;18.848;2022-11-20T03:16:50;63.90;;;31.20;;
62435;SDS011;48480;50.252;18.848;2022-11-20T03:19:16;59.80;;;31.00;;
62435;SDS011;48480;50.252;18.848;2022-11-20T03:21:41;64.30;;;32.70;;
62435;SDS011;48480;50.252;18.848;2022-11-20T03:24:07;60.80;;;31.20;;
62435;SDS011;48480;50.252;18.848;2022-11-20T03:26:32;65.00;;;33.00;;
62435;SDS011;48480;50.252;18.848;2022-11-20T03:28:59;66.60;;;32.90;;
62435;SDS011;48480;50.252;18.848;2022-11-20T03:31:27;64.70;;;32.30;;
62435;SDS011;48480;50.252;18.848;2022-11-20T03:33:55;56.20;;;30.30;;
62435;SDS011;48480;50.252;18.848;2022-11-20T03:36:21;63.40;;;32.20;;
62435;SDS011;48480;50.252;18.848;2022-11-20T03:38:47;61.30;;;32.80;;
62435;SDS011;48480;50.252;18.848;2022-11-20T03:41:20;59.10;;;30.60;;
62435;SDS011;48480;50.252;18.848;2022-11-20T03:43:48;64.10;;;32.70;;
62435;SDS011;48480;50.252;18.848;2022-11-20T03:46:14;47.40;;;27.40;;
62435;SDS011;48480;50.252;18.848;2022-11-20T03:48:40;59.40;;;31.50;;
62435;SDS011;48480;50.252;18.848;2022-11-20T03:51:10;60.30;;;32.20;;
62435;SDS011;48480;50.252;18.848;2022-11-20T03:53:44;57.00;;;31.00;;
62435;SDS011;48480;50.252;18.848;2022-11-20T03:56:11;65.50;;;33.30;;
62435;SDS011;48480;50.252;18.848;2022-11-20T03:58:38;60.20;;;30.90;;
62435;SDS011;48480;50.252;18.848;2022-11-20T04:03:38;63.30;;;31.10;;
62435;SDS011;48480;50.252;18.848;2022-11-20T04:06:14;66.50;;;35.30;;
62435;SDS011;48480;50.252;18.848;2022-11-20T04:08:46;49.50;;;27.40;;
62435;SDS011;48480;50.252;18.848;2022-11-20T04:11:13;60.40;;;31.40;;
62435;SDS011;48480;50.252;18.848;2022-11-20T04:13:40;62.80;;;32.90;;
62435;SDS011;48480;50.252;18.848;2022-11-20T04:16:08;61.20;;;31.60;;
62435;SDS011;48480;50.252;18.848;2022-11-20T04:18:34;59.80;;;29.00;;
62435;SDS011;48480;50.252;18.848;2022-11-20T04:21:00;61.20;;;31.10;;
62435;SDS011;48480;50.252;18.848;2022-11-20T04:23:27;70.90;;;34.00;;
62435;SDS011;48480;50.252;18.848;2022-11-20T04:25:52;70.10;;;33.80;;
62435;SDS011;48480;50.252;18.848;2022-11-20T04:28:18;69.50;;;33.00;;
62435;SDS011;48480;50.252;18.848;2022-11-20T04:30:44;63.20;;;33.70;;
62435;SDS011;48480;50.252;18.848;2022-11-20T04:33:09;62.50;;;32.00;;
62435;SDS011;48480;50.252;18.848;2022-11-20T04:35:35;64.60;;;32.60;;
62435;SDS011;48480;50.252;18.848;2022-11-20T04:38:01;62.40;;;34.80;;
62435;SDS011;48480;50.252;18.848;2022-11-20T04:40:27;63.10;;;33.70;;
62435;SDS011;48480;50.252;18.848;2022-11-20T04:42:53;69.00;;;33.70;;
62435;SDS011;48480;50.252;18.848;2022-11-20T04:45:20;67.70;;;33.70;;
62435;SDS011;48480;50.252;18.848;2022-11-20T04:47:45;69.40;;;33.80;;
62435;SDS011;48480;50.252;18.848;2022-11-20T04:50:11;60.00;;;32.30;;
62435;SDS011;48480;50.252;18.848;2022-11-20T04:52:36;60.80;;;30.80;;
62435;SDS011;48480;50.252;18.848;2022-11-20T04:55:02;61.20;;;32.10;;
62435;SDS011;48480;50.252;18.848;2022-11-20T04:57:27;56.80;;;31.10;;
62435;SDS011;48480;50.252;18.848;2022-11-20T04:59:53;62.50;;;28.70;;
62435;SDS011;48480;50.252;18.848;2022-11-20T05:02:18;64.40;;;32.30;;
62435;SDS011;48480;50.252;18.848;2022-11-20T05:04:43;64.30;;;32.60;;
62435;SDS011;48480;50.252;18.848;2022-11-20T05:07:09;70.30;;;33.10;;
62435;SDS011;48480;50.252;18.848;2022-11-20T05:09:34;55.20;;;29.40;;
62435;SDS011;48480;50.252;18.848;2022-11-20T05:11:59;56.70;;;29.40;;
62435;SDS011;48480;50.252;18.848;2022-11-20T05:14:25;59.50;;;30.00;;
62435;SDS011;48480;50.252;18.848;2022-11-20T05:16:50;47.10;;;25.60;;
62435;SDS011;48480;50.252;18.848;2022-11-20T05:19:16;56.90;;;28.80;;
62435;SDS011;48480;50.252;18.848;2022-11-20T05:21:41;56.90;;;30.80;;
62435;SDS011;48480;50.252;18.848;2022-11-20T05:24:06;51.00;;;27.90;;
62435;SDS011;48480;50.252;18.848;2022-11-20T05:26:32;52.80;;;28.20;;
62435;SDS011;48480;50.252;18.848;2022-11-20T05:28:57;56.80;;;27.30;;
62435;SDS011;48480;50.252;18.848;2022-11-20T05:31:24;60.60;;;31.30;;
62435;SDS011;48480;50.252;18.848;2022-11-20T05:33:50;60.90;;;30.90;;
62435;SDS011;48480;50.252;18.848;2022-11-20T05:36:16;57.90;;;27.90;;
62435;SDS011;48480;50.252;18.848;2022-11-20T05:38:42;51.20;;;28.10;;
62435;SDS011;48480;50.252;18.848;2022-11-20T05:41:16;56.00;;;29.30;;
62435;SDS011;48480;50.252;18.848;2022-11-20T05:43:43;57.50;;;31.00;;
62435;SDS011;48480;50.252;18.848;2022-11-20T05:46:11;63.80;;;31.40;;
62435;SDS011;48480;50.252;18.848;2022-11-20T05:48:40;61.10;;;33.20;;
62435;SDS011;48480;50.252;18.848;2022-11-20T05:51:07;55.60;;;30.50;;
62435;SDS011;48480;50.252;18.848;2022-11-20T05:53:34;65.30;;;33.40;;
62435;SDS011;48480;50.252;18.848;2022-11-20T05:56:05;66.60;;;31.60;;
62435;SDS011;48480;50.252;18.848;2022-11-20T05:58:32;52.30;;;30.00;;
62435;SDS011;48480;50.252;18.848;2022-11-20T06:03:35;58.70;;;28.20;;
62435;SDS011;48480;50.252;18.848;2022-11-20T06:06:02;58.00;;;29.30;;
62435;SDS011;48480;50.252;18.848;2022-11-20T06:08:29;50.40;;;26.80;;
62435;SDS011;48480;50.252;18.848;2022-11-20T06:10:55;55.60;;;29.40;;
62435;SDS011;48480;50.252;18.848;2022-11-20T06:13:20;57.60;;;28.90;;
62435;SDS011;48480;50.252;18.848;2022-11-20T06:15:52;61.60;;;31.40;;
62435;SDS011;48480;50.252;18.848;2022-11-20T06:18:18;58.60;;;30.80;;
62435;SDS011;48480;50.252;18.848;2022-11-20T06:20:44;58.80;;;31.10;;
62435;SDS011;48480;50.252;18.848;2022-11-20T06:23:10;51.80;;;29.00;;
62435;SDS011;48480;50.252;18.848;2022-11-20T06:25:42;54.20;;;28.60;;
62435;SDS011;48480;50.252;18.848;2022-11-20T06:28:07;56.00;;;28.50;;
62435;SDS011;48480;50.252;18.848;2022-11-20T06:30:34;53.40;;;27.30;;
62435;SDS011;48480;50.252;18.848;2022-11-20T06:33:00;51.60;;;28.00;;
62435;SDS011;48480;50.252;18.848;2022-11-20T06:35:26;54.90;;;27.70;;
62435;SDS011;48480;50.252;18.848;2022-11-20T06:37:51;55.30;;;26.60;;
62435;SDS011;48480;50.252;18.848;2022-11-20T06:40:16;55.40;;;29.80;;
62435;SDS011;48480;50.252;18.848;2022-11-20T06:42:42;54.30;;;28.80;;
62435;SDS011;48480;50.252;18.848;2022-11-20T06:45:07;53.80;;;28.20;;
62435;SDS011;48480;50.252;18.848;2022-11-20T06:47:34;54.30;;;29.00;;
62435;SDS011;48480;50.252;18.848;2022-11-20T06:49:59;58.60;;;30.50;;
62435;SDS011;48480;50.252;18.848;2022-11-20T06:52:25;51.80;;;29.10;;
62435;SDS011;48480;50.252;18.848;2022-11-20T06:54:50;54.70;;;28.90;;
62435;SDS011;48480;50.252;18.848;2022-11-20T06:57:15;54.40;;;29.80;;
62435;SDS011;48480;50.252;18.848;2022-11-20T06:59:41;57.40;;;28.90;;
62435;SDS011;48480;50.252;18.848;2022-11-20T07:02:09;55.60;;;27.90;;
62435;SDS011;48480;50.252;18.848;2022-11-20T07:04:36;57.80;;;29.30;;
62435;SDS011;48480;50.252;18.848;2022-11-20T07:07:02;59.40;;;28.80;;
62435;SDS011;48480;50.252;18.848;2022-11-20T07:09:27;54.30;;;28.60;;
62435;SDS011;48480;50.252;18.848;2022-11-20T07:11:52;55.90;;;30.30;;
62435;SDS011;48480;50.252;18.848;2022-11-20T07:14:18;55.40;;;30.10;;
62435;SDS011;48480;50.252;18.848;2022-11-20T07:16:43;50.20;;;29.20;;
62435;SDS011;48480;50.252;18.848;2022-11-20T07:19:09;55.50;;;28.80;;
62435;SDS011;48480;50.252;18.848;2022-11-20T07:21:34;49.10;;;29.60;;
62435;SDS011;48480;50.252;18.848;2022-11-20T07:23:59;63.00;;;31.30;;
62435;SDS011;48480;50.252;18.848;2022-11-20T07:26:25;58.90;;;30.80;;
62435;SDS011;48480;50.252;18.848;2022-11-20T07:28:50;55.90;;;29.60;;
62435;SDS011;48480;50.252;18.848;2022-11-20T07:31:16;55.30;;;30.30;;
62435;SDS011;48480;50.252;18.848;2022-11-20T07:33:41;52.50;;;29.30;;
62435;SDS011;48480;50.252;18.848;2022-11-20T07:36:07;55.90;;;29.90;;
62435;SDS011;48480;50.252;18.848;2022-11-20T07:38:32;52.80;;;29.40;;
62435;SDS011;48480;50.252;18.848;2022-11-20T07:40:58;54.90;;;29.40;;
62435;SDS011;48480;50.252;18.848;2022-11-20T07:43:26;53.60;;;28.70;;
62435;SDS011;48480;50.252;18.848;2022-11-20T07:45:56;52.30;;;29.20;;
62435;SDS011;48480;50.252;18.848;2022-11-20T07:48:23;54.00;;;30.30;;
62435;SDS011;48480;50.252;18.848;2022-11-20T07:50:49;56.70;;;29.50;;
62435;SDS011;48480;50.252;18.848;2022-11-20T07:53:14;53.30;;;31.60;;
62435;SDS011;48480;50.252;18.848;2022-11-20T07:55:46;55.50;;;31.70;;
62435;SDS011;48480;50.252;18.848;2022-11-20T07:58:11;59.70;;;31.00;;
62435;SDS011;48480;50.252;18.848;2022-11-20T08:00:37;58.10;;;31.00;;
62435;SDS011;48480;50.252;18.848;2022-11-20T08:03:06;57.20;;;32.20;;
62435;SDS011;48480;50.252;18.848;2022-11-20T08:05:31;65.50;;;35.60;;
62435;SDS011;48480;50.252;18.848;2022-11-20T08:07:57;61.80;;;34.50;;
62435;SDS011;48480;50.252;18.848;2022-11-20T08:10:25;66.30;;;35.10;;
62435;SDS011;48480;50.252;18.848;2022-11-20T08:12:50;71.40;;;37.90;;
62435;SDS011;48480;50.252;18.848;2022-11-20T08:15:47;70.10;;;40.50;;
62435;SDS011;48480;50.252;18.848;2022-11-20T08:18:15;70.20;;;40.60;;
62435;SDS011;48480;50.252;18.848;2022-11-20T08:20:40;73.90;;;42.80;;
62435;SDS011;48480;50.252;18.848;2022-11-20T08:23:06;84.20;;;46.30;;
62435;SDS011;48480;50.252;18.848;2022-11-20T08:25:33;82.20;;;44.70;;
62435;SDS011;48480;50.252;18.848;2022-11-20T08:28:06;91.50;;;47.10;;
62435;SDS011;48480;50.252;18.848;2022-11-20T08:30:34;86.70;;;45.60;;
62435;SDS011;48480;50.252;18.848;2022-11-20T08:33:05;88.20;;;47.80;;
62435;SDS011;48480;50.252;18.848;2022-11-20T08:35:36;93.00;;;49.40;;
62435;SDS011;48480;50.252;18.848;2022-11-20T08:38:05;97.60;;;50.00;;
62435;SDS011;48480;50.252;18.848;2022-11-20T08:40:32;99.20;;;54.00;;
62435;SDS011;48480;50.252;18.848;2022-11-20T08:42:58;94.50;;;52.00;;
62435;SDS011;48480;50.252;18.848;2022-11-20T08:45:24;94.10;;;52.30;;
62435;SDS011;48480;50.252;18.848;2022-11-20T08:47:49;93.70;;;51.50;;
62435;SDS011;48480;50.252;18.848;2022-11-20T08:50:15;87.10;;;47.80;;
62435;SDS011;48480;50.252;18.848;2022-11-20T08:52:42;85.20;;;48.40;;
62435;SDS011;48480;50.252;18.848;2022-11-20T08:55:08;83.40;;;45.50;;
62435;SDS011;48480;50.252;18.848;2022-11-20T08:57:35;77.50;;;44.30;;
62435;SDS011;48480;50.252;18.848;2022-11-20T09:00:02;75.90;;;43.60;;
62435;SDS011;48480;50.252;18.848;2022-11-20T09:02:29;72.80;;;39.60;;
62435;SDS011;48480;50.252;18.848;2022-11-20T09:04:54;77.40;;;41.50;;
62435;SDS011;48480;50.252;18.848;2022-11-20T09:07:20;77.10;;;43.80;;
62435;SDS011;48480;50.252;18.848;2022-11-20T09:09:45;89.10;;;46.70;;
62435;SDS011;48480;50.252;18.848;2022-11-20T09:12:11;81.60;;;42.60;;
62435;SDS011;48480;50.252;18.848;2022-11-20T09:14:36;80.00;;;41.70;;
62435;SDS011;48480;50.252;18.848;2022-11-20T09:17:02;75.80;;;41.80;;
62435;SDS011;48480;50.252;18.848;2022-11-20T09:19:27;78.00;;;41.40;;
62435;SDS011;48480;50.252;18.848;2022-11-20T09:21:53;75.80;;;41.60;;
62435;SDS011;48480;50.252;18.848;2022-11-20T09:24:20;78.00;;;42.00;;
62435;SDS011;48480;50.252;18.848;2022-11-20T09:26:48;82.50;;;41.20;;
62435;SDS011;48480;50.252;18.848;2022-11-20T09:29:13;79.30;;;39.20;;
62435;SDS011;48480;50.252;18.848;2022-11-20T09:31:39;76.20;;;42.30;;
62435;SDS011;48480;50.252;18.848;2022-11-20T09:34:04;74.10;;;42.70;;
62435;SDS011;48480;50.252;18.848;2022-11-20T09:36:29;80.80;;;42.80;;
62435;SDS011;48480;50.252;18.848;2022-11-20T09:38:55;72.00;;;37.90;;
62435;SDS011;48480;50.252;18.848;2022-11-20T09:44:09;69.30;;;36.90;;
62435;SDS011;48480;50.252;18.848;2022-11-20T09:46:47;64.10;;;36.00;;
62435;SDS011;48480;50.252;18.848;2022-11-20T09:51:59;62.70;;;34.20;;
62435;SDS011;48480;50.252;18.848;2022-11-20T09:54:27;67.30;;;35.60;;
62435;SDS011;48480;50.252;18.848;2022-11-20T10:02:27;60.30;;;33.80;;
62435;SDS011;48480;50.252;18.848;2022-11-20T10:05:01;58.00;;;34.40;;
62435;SDS011;48480;50.252;18.848;2022-11-20T10:10:20;63.00;;;35.00;;
62435;SDS011;48480;50.252;18.848;2022-11-20T10:12:59;60.50;;;34.40;;
62435;SDS011;48480;50.252;18.848;2022-11-20T10:29:51;49.00;;;27.50;;
62435;SDS011;48480;50.252;18.848;2022-11-20T10:33:03;56.40;;;28.30;;
62435;SDS011;48480;50.252;18.848;2022-11-20T10:35:36;48.30;;;25.40;;
62435;SDS011;48480;50.252;18.848;2022-11-20T10:38:09;50.60;;;29.80;;
62435;SDS011;48480;50.252;18.848;2022-11-20T10:40:42;49.10;;;28.00;;
62435;SDS011;48480;50.252;18.848;2022-11-20T10:43:12;49.80;;;28.80;;
62435;SDS011;48480;50.252;18.848;2022-11-20T10:45:46;50.70;;;29.60;;
62435;SDS011;48480;50.252;18.848;2022-11-20T10:48:23;49.60;;;27.10;;
62435;SDS011;48480;50.252;18.848;2022-11-20T10:56:24;47.20;;;27.70;;
62435;SDS011;48480;50.252;18.848;2022-11-20T11:01:43;50.60;;;29.50;;
62435;SDS011;48480;50.252;18.848;2022-11-20T11:07:07;46.30;;;28.00;;
62435;SDS011;48480;50.252;18.848;2022-11-20T11:09:46;49.30;;;27.30;;
62435;SDS011;48480;50.252;18.848;2022-11-20T11:12:15;51.70;;;29.00;;
62435;SDS011;48480;50.252;18.848;2022-11-20T11:14:48;44.80;;;26.60;;
62435;SDS011;48480;50.252;18.848;2022-11-20T11:17:28;57.40;;;29.00;;
62435;SDS011;48480;50.252;18.848;2022-11-20T11:19:59;46.10;;;26.90;;
62435;SDS011;48480;50.252;18.848;2022-11-20T11:22:34;43.50;;;25.50;;
62435;SDS011;48480;50.252;18.848;2022-11-20T11:25:11;44.50;;;25.60;;
62435;SDS011;48480;50.252;18.848;2022-11-20T11:27:49;45.70;;;26.30;;
62435;SDS011;48480;50.252;18.848;2022-11-20T11:30:17;57.10;;;29.30;;
62435;SDS011;48480;50.252;18.848;2022-11-20T11:32:45;48.30;;;26.80;;
62435;SDS011;48480;50.252;18.848;2022-11-20T11:35:21;52.80;;;28.60;;
62435;SDS011;48480;50.252;18.848;2022-11-20T11:37:53;44.90;;;24.50;;
62435;SDS011;48480;50.252;18.848;2022-11-20T11:40:27;59.10;;;26.70;;
62435;SDS011;48480;50.252;18.848;2022-11-20T11:42:57;47.70;;;28.60;;
62435;SDS011;48480;50.252;18.848;2022-11-20T11:45:27;47.60;;;27.00;;
62435;SDS011;48480;50.252;18.848;2022-11-20T11:47:53;50.30;;;29.70;;
62435;SDS011;48480;50.252;18.848;2022-11-20T11:50:22;48.10;;;26.70;;
62435;SDS011;48480;50.252;18.848;2022-11-20T11:55:42;50.30;;;28.20;;
62435;SDS011;48480;50.252;18.848;2022-11-20T12:07:01;49.90;;;28.90;;
62435;SDS011;48480;50.252;18.848;2022-11-20T12:09:35;57.70;;;30.40;;
62435;SDS011;48480;50.252;18.848;2022-11-20T12:12:13;53.80;;;29.30;;
62435;SDS011;48480;50.252;18.848;2022-11-20T12:14:46;51.10;;;29.10;;
62435;SDS011;48480;50.252;18.848;2022-11-20T12:17:16;54.60;;;31.70;;
62435;SDS011;48480;50.252;18.848;2022-11-20T12:19:43;51.30;;;31.30;;
62435;SDS011;48480;50.252;18.848;2022-11-20T12:24:52;53.30;;;29.50;;
62435;SDS011;48480;50.252;18.848;2022-11-20T12:30:20;62.30;;;32.60;;
62435;SDS011;48480;50.252;18.848;2022-11-20T12:38:38;58.20;;;32.60;;
62435;SDS011;48480;50.252;18.848;2022-11-20T12:47:41;59.40;;;32.40;;
62435;SDS011;48480;50.252;18.848;2022-11-20T12:53:05;65.00;;;33.70;;
62435;SDS011;48480;50.252;18.848;2022-11-20T13:00:50;66.00;;;35.00;;
62435;SDS011;48480;50.252;18.848;2022-11-20T13:03:32;64.90;;;35.40;;
62435;SDS011;48480;50.252;18.848;2022-11-20T13:06:05;61.00;;;34.00;;
62435;SDS011;48480;50.252;18.848;2022-11-20T13:08:39;65.30;;;35.40;;
62435;SDS011;48480;50.252;18.848;2022-11-20T13:11:12;63.70;;;34.10;;
62435;SDS011;48480;50.252;18.848;2022-11-20T13:19:54;54.60;;;31.60;;
62435;SDS011;48480;50.252;18.848;2022-11-20T13:22:24;58.40;;;32.70;;
62435;SDS011;48480;50.252;18.848;2022-11-20T13:24:50;58.10;;;31.40;;
62435;SDS011;48480;50.252;18.848;2022-11-20T13:27:18;51.20;;;28.60;;
62435;SDS011;48480;50.252;18.848;2022-11-20T13:32:48;48.00;;;27.80;;
62435;SDS011;48480;50.252;18.848;2022-11-20T13:38:03;53.70;;;28.70;;
62435;SDS011;48480;50.252;18.848;2022-11-20T13:40:29;52.00;;;26.80;;
62435;SDS011;48480;50.252;18.848;2022-11-20T13:45:32;51.60;;;27.50;;
62435;SDS011;48480;50.252;18.848;2022-11-20T13:48:02;50.40;;;26.10;;
62435;SDS011;48480;50.252;18.848;2022-11-20T13:53:09;45.20;;;22.90;;
62435;SDS011;48480;50.252;18.848;2022-11-20T13:55:46;54.20;;;29.30;;
62435;SDS011;48480;50.252;18.848;2022-11-20T13:58:28;52.90;;;28.50;;
62435;SDS011;48480;50.252;18.848;2022-11-20T14:01:13;52.10;;;28.20;;
62435;SDS011;48480;50.252;18.848;2022-11-20T14:03:45;53.80;;;30.60;;
62435;SDS011;48480;50.252;18.848;2022-11-20T14:06:14;52.60;;;28.20;;
62435;SDS011;48480;50.252;18.848;2022-11-20T14:08:51;54.10;;;30.10;;
62435;SDS011;48480;50.252;18.848;2022-11-20T14:11:18;58.70;;;30.40;;
62435;SDS011;48480;50.252;18.848;2022-11-20T14:16:36;57.30;;;30.00;;
62435;SDS011;48480;50.252;18.848;2022-11-20T14:21:49;55.60;;;29.90;;
62435;SDS011;48480;50.252;18.848;2022-11-20T14:24:19;53.90;;;29.30;;
62435;SDS011;48480;50.252;18.848;2022-11-20T14:26:46;51.40;;;27.40;;
62435;SDS011;48480;50.252;18.848;2022-11-20T14:29:17;55.20;;;29.60;;
62435;SDS011;48480;50.252;18.848;2022-11-20T14:31:53;47.80;;;26.20;;
62435;SDS011;48480;50.252;18.848;2022-11-20T14:34:30;49.10;;;27.10;;
62435;SDS011;48480;50.252;18.848;2022-11-20T14:37:01;47.40;;;25.20;;
62435;SDS011;48480;50.252;18.848;2022-11-20T14:39:32;46.40;;;23.40;;
62435;SDS011;48480;50.252;18.848;2022-11-20T14:42:00;47.60;;;23.80;;
62435;SDS011;48480;50.252;18.848;2022-11-20T14:44:27;35.90;;;20.80;;
62435;SDS011;48480;50.252;18.848;2022-11-20T14:46:57;37.40;;;18.60;;
62435;SDS011;48480;50.252;18.848;2022-11-20T14:49:25;36.80;;;19.30;;
62435;SDS011;48480;50.252;18.848;2022-11-20T14:52:01;40.90;;;20.70;;
62435;SDS011;48480;50.252;18.848;2022-11-20T14:54:46;39.30;;;21.20;;
62435;SDS011;48480;50.252;18.848;2022-11-20T14:57:33;36.20;;;19.70;;
62435;SDS011;48480;50.252;18.848;2022-11-20T15:02:41;47.00;;;24.20;;
62435;SDS011;48480;50.252;18.848;2022-11-20T15:05:13;39.90;;;19.90;;
62435;SDS011;48480;50.252;18.848;2022-11-20T15:07:43;34.50;;;19.00;;
62435;SDS011;48480;50.252;18.848;2022-11-20T15:10:22;36.10;;;20.30;;
62435;SDS011;48480;50.252;18.848;2022-11-20T15:13:00;38.60;;;20.20;;
62435;SDS011;48480;50.252;18.848;2022-11-20T15:15:48;38.60;;;20.00;;
62435;SDS011;48480;50.252;18.848;2022-11-20T15:18:15;42.60;;;20.30;;
62435;SDS011;48480;50.252;18.848;2022-11-20T15:21:11;43.00;;;23.60;;
62435;SDS011;48480;50.252;18.848;2022-11-20T15:26:31;48.80;;;25.70;;
62435;SDS011;48480;50.252;18.848;2022-11-20T15:29:08;40.70;;;21.30;;
62435;SDS011;48480;50.252;18.848;2022-11-20T15:31:35;47.30;;;24.20;;
62435;SDS011;48480;50.252;18.848;2022-11-20T15:34:02;52.30;;;29.00;;
62435;SDS011;48480;50.252;18.848;2022-11-20T15:36:31;56.00;;;29.90;;
62435;SDS011;48480;50.252;18.848;2022-11-20T15:38:57;61.90;;;31.40;;
62435;SDS011;48480;50.252;18.848;2022-11-20T15:41:22;58.10;;;27.70;;
62435;SDS011;48480;50.252;18.848;2022-11-20T15:43:48;54.30;;;28.70;;
62435;SDS011;48480;50.252;18.848;2022-11-20T15:46:15;52.80;;;28.30;;
62435;SDS011;48480;50.252;18.848;2022-11-20T15:48:49;53.70;;;28.80;;
62435;SDS011;48480;50.252;18.848;2022-11-20T15:51:24;48.60;;;25.20;;
62435;SDS011;48480;50.252;18.848;2022-11-20T15:54:09;48.50;;;25.30;;
62435;SDS011;48480;50.252;18.848;2022-11-20T15:56:48;48.20;;;24.00;;
62435;SDS011;48480;50.252;18.848;2022-11-20T15:59:17;42.30;;;21.80;;
62435;SDS011;48480;50.252;18.848;2022-11-20T16:01:43;51.60;;;25.40;;
62435;SDS011;48480;50.252;18.848;2022-11-20T16:04:15;53.10;;;26.60;;
62435;SDS011;48480;50.252;18.848;2022-11-20T16:06:41;47.00;;;26.70;;
62435;SDS011;48480;50.252;18.848;2022-11-20T16:09:07;52.20;;;27.50;;
62435;SDS011;48480;50.252;18.848;2022-11-20T16:11:33;47.20;;;23.80;;
62435;SDS011;48480;50.252;18.848;2022-11-20T16:14:02;50.50;;;26.00;;
62435;SDS011;48480;50.252;18.848;2022-11-20T16:16:49;67.10;;;29.70;;
62435;SDS011;48480;50.252;18.848;2022-11-20T16:19:14;61.20;;;31.10;;
62435;SDS011;48480;50.252;18.848;2022-11-20T16:21:41;55.50;;;24.40;;